createdAt,value
2022-10-11T00:01:47.757Z,7.82
2022-10-11T00:04:14.438Z,7.96
2022-10-11T00:06:43.546Z,7.92
2022-10-11T00:09:11.748Z,8.22
2022-10-11T00:11:38.909Z,7.50
2022-10-11T00:14:06.450Z,7.40
2022-10-11T00:16:33.236Z,7.62
2022-10-11T00:18:59.915Z,7.54
2022-10-11T00:21:27.161Z,7.83
2022-10-11T00:23:53.837Z,7.76
2022-10-11T00:26:20.463Z,7.79
2022-10-11T00:28:47.316Z,7.58
2022-10-11T00:31:16.236Z,8.05
2022-10-11T00:33:42.970Z,8.07
2022-10-11T00:36:13.685Z,7.85
2022-10-11T00:38:40.440Z,7.83
2022-10-11T00:41:07.209Z,8.17
2022-10-11T00:43:34.039Z,7.92
2022-10-11T00:46:27.913Z,8.11
2022-10-11T00:49:00.151Z,8.07
2022-10-11T00:51:48.773Z,8.10
2022-10-11T00:54:19.046Z,8.11
2022-10-11T00:56:51.601Z,8.00
2022-10-11T00:59:23.954Z,8.14
2022-10-11T01:01:51.717Z,8.21
2022-10-11T01:04:18.410Z,8.30
2022-10-11T01:06:46.007Z,7.91
2022-10-11T01:09:13.845Z,8.06
2022-10-11T01:11:42.979Z,8.24
2022-10-11T01:14:21.869Z,8.32
2022-10-11T01:16:58.578Z,8.41
2022-10-11T01:19:45.572Z,8.26
2022-10-11T01:22:22.648Z,8.49
2022-10-11T01:25:10.710Z,8.52
2022-10-11T01:28:07.873Z,8.52
2022-10-11T01:30:36.873Z,8.53
2022-10-11T01:33:12.540Z,8.55
2022-10-11T01:35:57.617Z,8.53
2022-10-11T01:38:30.134Z,8.49
2022-10-11T01:41:02.334Z,8.40
2022-10-11T01:43:30.378Z,8.21
2022-10-11T01:45:58.946Z,8.38
2022-10-11T01:48:25.845Z,8.34
2022-10-11T01:50:57.027Z,8.69
2022-10-11T01:53:52.569Z,8.51
2022-10-11T01:56:42.517Z,8.69
2022-10-11T01:59:51.388Z,8.14
2022-10-11T02:02:31.969Z,8.53
2022-10-11T02:04:58.582Z,8.75
2022-10-11T02:07:43.743Z,8.50
2022-10-11T02:10:18.990Z,8.74
2022-10-11T02:13:03.172Z,8.41
2022-10-11T02:15:32.772Z,8.48
2022-10-11T02:18:02.322Z,8.49
2022-10-11T02:20:32.808Z,8.10
2022-10-11T02:23:05.639Z,8.46
2022-10-11T02:25:35.070Z,8.29
2022-10-11T02:28:07.378Z,8.28
2022-10-11T02:30:35.505Z,8.51
2022-10-11T02:33:05.413Z,8.40
2022-10-11T02:35:39.051Z,8.10
2022-10-11T02:38:23.379Z,8.54
2022-10-11T02:41:08.087Z,8.54
2022-10-11T02:43:41.978Z,8.35
2022-10-11T02:46:10.115Z,8.65
2022-10-11T02:48:37.465Z,8.60
2022-10-11T02:51:04.886Z,8.72
2022-10-11T02:53:33.526Z,8.54
2022-10-11T02:56:00.119Z,8.59
2022-10-11T02:58:26.701Z,8.09
2022-10-11T03:00:53.437Z,8.39
2022-10-11T03:03:20.453Z,8.46
2022-10-11T03:05:47.093Z,8.54
2022-10-11T03:08:15.665Z,8.59
2022-10-11T03:10:42.946Z,8.77
2022-10-11T03:13:09.607Z,8.78
2022-10-11T03:15:36.238Z,8.66
2022-10-11T03:18:03.132Z,8.48
2022-10-11T03:20:29.730Z,8.64
2022-10-11T03:22:56.436Z,8.62
2022-10-11T03:25:23.017Z,8.88
2022-10-11T03:27:49.616Z,8.45
2022-10-11T03:30:18.372Z,8.65
2022-10-11T03:32:45.187Z,8.58
2022-10-11T03:35:11.860Z,8.96
2022-10-11T03:37:38.508Z,8.84
2022-10-11T03:40:08.199Z,9.01
2022-10-11T03:42:35.620Z,9.20
2022-10-11T03:45:04.994Z,8.88
2022-10-11T03:47:32.208Z,9.34
2022-10-11T03:49:58.807Z,8.87
2022-10-11T03:52:25.424Z,8.85
2022-10-11T03:54:52.346Z,8.95
2022-10-11T03:57:19.392Z,8.79
2022-10-11T03:59:46.054Z,8.83
2022-10-11T04:02:12.722Z,8.69
2022-10-11T04:04:39.393Z,8.92
2022-10-11T04:07:06.482Z,8.59
2022-10-11T04:09:33.145Z,8.56
2022-10-11T04:11:59.777Z,8.79
2022-10-11T04:14:26.741Z,8.87
2022-10-11T04:16:56.348Z,8.77
2022-10-11T04:19:25.070Z,8.67
2022-10-11T04:21:51.702Z,8.77
2022-10-11T04:24:18.326Z,8.76
2022-10-11T04:26:44.914Z,8.74
2022-10-11T04:29:11.904Z,8.65
2022-10-11T04:31:38.490Z,8.53
2022-10-11T04:34:05.060Z,9.07
2022-10-11T04:36:33.880Z,8.98
2022-10-11T04:39:01.670Z,8.87
2022-10-11T04:41:29.332Z,8.67
2022-10-11T04:43:56.199Z,8.96
2022-10-11T04:46:23.587Z,8.74
2022-10-11T04:48:51.337Z,8.79
2022-10-11T04:51:18.623Z,8.88
2022-10-11T04:53:45.220Z,8.66
2022-10-11T04:56:12.023Z,8.61
2022-10-11T04:58:41.013Z,8.85
2022-10-11T05:01:09.221Z,8.95
2022-10-11T05:03:36.839Z,8.94
2022-10-11T05:06:05.838Z,9.10
2022-10-11T05:08:33.609Z,9.07
2022-10-11T05:11:06.587Z,9.01
2022-10-11T05:13:34.993Z,9.09
2022-10-11T05:16:04.857Z,9.07
2022-10-11T05:18:35.715Z,9.04
2022-10-11T05:21:15.208Z,8.81
2022-10-11T05:23:41.997Z,8.81
2022-10-11T05:26:09.011Z,8.88
2022-10-11T05:28:35.993Z,8.77
2022-10-11T05:31:03.169Z,8.85
2022-10-11T05:33:29.978Z,8.75
2022-10-11T05:35:56.663Z,8.84
2022-10-11T05:38:23.424Z,8.69
2022-10-11T05:40:50.078Z,8.81
2022-10-11T05:43:16.726Z,8.87
2022-10-11T05:45:44.129Z,8.95
2022-10-11T05:48:11.912Z,9.01
2022-10-11T05:50:39.297Z,9.07
2022-10-11T05:53:06.906Z,8.83
2022-10-11T05:55:41.775Z,8.78
2022-10-11T05:58:12.228Z,8.61
2022-10-11T06:00:39.159Z,8.60
2022-10-11T06:03:06.902Z,8.70
2022-10-11T06:05:36.637Z,8.92
2022-10-11T06:08:06.028Z,8.66
2022-10-11T06:10:33.257Z,8.99
2022-10-11T06:12:59.857Z,9.06
2022-10-11T06:15:26.850Z,8.85
2022-10-11T06:17:53.759Z,8.25
2022-10-11T06:20:20.354Z,9.11
2022-10-11T06:22:46.942Z,9.47
2022-10-11T06:25:13.588Z,9.02
2022-10-11T06:27:40.237Z,9.54
2022-10-11T06:30:07.488Z,9.15
2022-10-11T06:32:34.080Z,8.79
2022-10-11T06:35:00.774Z,9.14
2022-10-11T06:37:27.374Z,8.99
2022-10-11T06:39:53.973Z,9.53
2022-10-11T06:42:20.672Z,9.55
2022-10-11T06:44:47.246Z,9.30
2022-10-11T06:47:13.843Z,9.29
2022-10-11T06:49:40.410Z,9.61
2022-10-11T06:52:07.050Z,9.17
2022-10-11T06:54:33.667Z,9.52
2022-10-11T06:57:00.258Z,9.55
2022-10-11T06:59:26.859Z,9.53
2022-10-11T07:01:53.460Z,9.59
2022-10-11T07:04:20.061Z,9.59
2022-10-11T07:06:46.674Z,9.76
2022-10-11T07:09:13.408Z,9.55
2022-10-11T07:11:40.132Z,9.75
2022-10-11T07:14:07.898Z,9.78
2022-10-11T07:16:36.551Z,9.73
2022-10-11T07:19:06.055Z,9.77
2022-10-11T07:21:34.581Z,9.80
2022-10-11T07:24:02.138Z,9.74
2022-10-11T07:26:33.787Z,9.94
2022-10-11T07:29:05.439Z,9.82
2022-10-11T07:31:32.225Z,9.83
2022-10-11T07:33:58.885Z,9.87
2022-10-11T07:36:25.817Z,9.62
2022-10-11T07:38:52.528Z,9.88
2022-10-11T07:41:19.799Z,10.03
2022-10-11T07:43:48.237Z,9.98
2022-10-11T07:46:15.912Z,10.32
2022-10-11T07:48:42.526Z,10.08
2022-10-11T07:51:15.808Z,10.05
2022-10-11T07:53:44.704Z,10.45
2022-10-11T07:56:13.578Z,10.59
2022-10-11T07:58:41.859Z,10.54
2022-10-11T08:01:10.586Z,10.65
2022-10-11T08:03:38.140Z,10.64
2022-10-11T08:06:08.782Z,10.96
2022-10-11T08:08:36.644Z,10.90
2022-10-11T08:11:03.817Z,11.15
2022-10-11T08:13:30.860Z,10.93
2022-10-11T08:15:58.092Z,10.97
2022-10-11T08:18:24.918Z,11.33
2022-10-11T08:20:51.703Z,11.15
2022-10-11T08:23:19.463Z,11.27
2022-10-11T08:25:47.729Z,11.26
2022-10-11T08:28:17.410Z,11.57
2022-10-11T08:30:52.635Z,11.66
2022-10-11T08:33:22.193Z,11.76
2022-10-11T08:35:50.437Z,11.68
2022-10-11T08:38:18.068Z,11.66
2022-10-11T08:40:55.210Z,11.92
2022-10-11T08:43:24.844Z,11.87
2022-10-11T08:45:55.182Z,11.63
2022-10-11T08:48:51.191Z,11.81
2022-10-11T08:51:23.753Z,11.90
2022-10-11T08:54:10.930Z,11.94
2022-10-11T08:56:39.855Z,11.99
2022-10-11T08:59:12.734Z,12.02
2022-10-11T09:02:21.387Z,12.08
2022-10-11T09:04:51.430Z,11.77
2022-10-11T09:07:33.204Z,12.09
2022-10-11T09:10:12.192Z,12.14
2022-10-11T09:12:40.942Z,12.20
2022-10-11T09:15:10.647Z,12.20
2022-10-11T09:17:59.040Z,12.14
2022-10-11T09:20:43.697Z,12.07
2022-10-11T09:23:23.374Z,12.29
2022-10-11T09:25:55.807Z,12.18
2022-10-11T09:28:47.419Z,12.48
2022-10-11T09:31:14.174Z,12.38
2022-10-11T09:33:49.017Z,12.65
2022-10-11T09:36:40.426Z,12.64
2022-10-11T09:39:39.308Z,12.72
2022-10-11T09:42:09.223Z,12.45
2022-10-11T09:44:38.017Z,12.47
2022-10-11T09:47:06.141Z,12.56
2022-10-11T09:49:42.851Z,12.63
2022-10-11T09:52:18.308Z,12.37
2022-10-11T09:54:51.255Z,12.53
2022-10-11T09:57:22.978Z,12.68
2022-10-11T10:00:17.638Z,12.84
2022-10-11T10:02:47.428Z,12.22
2022-10-11T10:05:18.436Z,12.57
2022-10-11T10:08:10.904Z,12.76
2022-10-11T10:10:43.860Z,12.94
2022-10-11T10:13:21.754Z,12.98
2022-10-11T10:15:55.039Z,12.66
2022-10-11T10:18:29.839Z,13.35
2022-10-11T10:21:01.860Z,13.61
2022-10-11T10:23:31.775Z,13.33
2022-10-11T10:26:20.275Z,13.26
2022-10-11T10:29:08.211Z,13.73
2022-10-11T10:32:13.234Z,13.50
2022-10-11T10:35:18.352Z,13.79
2022-10-11T10:37:59.240Z,13.58
2022-10-11T10:40:35.911Z,13.86
2022-10-11T10:43:02.485Z,14.23
2022-10-11T10:45:42.434Z,14.08
2022-10-11T10:48:27.440Z,14.27
2022-10-11T10:51:23.574Z,13.80
2022-10-11T10:54:10.845Z,14.04
2022-10-11T10:57:00.064Z,14.44
2022-10-11T10:59:38.845Z,14.20
2022-10-11T11:02:39.186Z,13.61
2022-10-11T11:05:23.313Z,13.44
2022-10-11T11:08:20.610Z,13.74
2022-10-11T11:11:15.322Z,13.92
2022-10-11T11:13:47.697Z,13.83
2022-10-11T11:16:42.114Z,13.69
2022-10-11T11:19:08.717Z,13.98
2022-10-11T11:21:53.646Z,13.90
2022-10-11T11:28:07.045Z,14.78
2022-10-11T11:30:49.234Z,14.94
2022-10-11T11:33:15.774Z,14.54
2022-10-11T11:35:49.983Z,14.19
2022-10-11T11:38:29.265Z,14.40
2022-10-11T11:41:01.892Z,14.92
2022-10-11T11:44:03.025Z,15.53
2022-10-11T11:46:35.684Z,14.93
2022-10-11T11:49:23.761Z,14.74
2022-10-11T11:51:51.698Z,14.60
2022-10-11T11:54:36.502Z,14.13
2022-10-11T11:57:24.956Z,14.09
2022-10-11T12:00:06.445Z,13.86
2022-10-11T12:02:47.660Z,13.59
2022-10-11T12:05:18.704Z,13.59
2022-10-11T12:07:48.351Z,13.56
2022-10-11T12:10:24.179Z,13.46
2022-10-11T12:13:05.990Z,13.54
2022-10-11T12:15:33.000Z,13.35
2022-10-11T12:18:04.223Z,13.68
2022-10-11T12:20:41.269Z,13.36
2022-10-11T12:23:29.967Z,13.59
2022-10-11T12:26:30.988Z,13.27
2022-10-11T12:29:00.314Z,13.40
2022-10-11T12:31:36.034Z,13.21
2022-10-11T12:34:16.185Z,13.44
2022-10-11T12:36:43.965Z,13.47
2022-10-11T12:39:19.936Z,13.43
2022-10-11T12:41:55.712Z,13.55
2022-10-11T12:44:26.469Z,13.81
2022-10-11T12:46:57.661Z,13.82
2022-10-11T12:49:31.156Z,13.69
2022-10-11T12:52:04.214Z,13.70
2022-10-11T12:54:52.786Z,13.88
2022-10-11T12:57:59.049Z,13.95
2022-10-11T13:00:32.238Z,14.01
2022-10-11T13:03:02.010Z,14.03
2022-10-11T13:05:52.381Z,15.66
2022-10-11T13:08:31.064Z,16.11
2022-10-11T13:11:03.321Z,16.50
2022-10-11T13:13:33.275Z,16.65
2022-10-11T13:16:09.181Z,16.23
2022-10-11T13:18:36.025Z,15.34
2022-10-11T13:21:02.850Z,15.20
2022-10-11T13:23:37.786Z,14.94
2022-10-11T13:26:06.071Z,14.73
2022-10-11T13:28:36.310Z,14.77
2022-10-11T13:31:05.422Z,14.68
2022-10-11T13:33:35.464Z,14.98
2022-10-11T13:36:05.442Z,15.52
2022-10-11T13:38:35.357Z,16.00
2022-10-11T13:41:05.143Z,15.89
2022-10-11T13:43:32.290Z,16.63
2022-10-11T13:46:00.587Z,16.37
2022-10-11T13:48:31.667Z,16.20
2022-10-11T13:51:17.812Z,15.55
2022-10-11T13:54:10.493Z,16.06
2022-10-11T13:56:48.111Z,15.67
2022-10-11T13:59:20.824Z,15.16
2022-10-11T14:01:48.079Z,15.11
2022-10-11T14:04:17.139Z,15.03
2022-10-11T14:07:00.602Z,15.18
2022-10-11T14:09:31.390Z,14.95
2022-10-11T14:12:25.945Z,14.41
2022-10-11T14:14:52.891Z,13.87
2022-10-11T14:17:22.455Z,14.23
2022-10-11T14:20:13.011Z,14.26
2022-10-11T14:22:39.865Z,13.63
2022-10-11T14:25:06.858Z,13.73
2022-10-11T14:27:33.620Z,14.06
2022-10-11T14:30:24.690Z,13.67
2022-10-11T14:32:50.084Z,13.76
2022-10-11T14:35:25.399Z,13.94
2022-10-11T14:37:53.000Z,13.88
2022-10-11T14:40:34.776Z,13.87
2022-10-11T14:43:03.962Z,12.05
2022-10-11T14:45:56.295Z,11.85
2022-10-11T14:48:42.886Z,12.75
2022-10-11T14:51:13.240Z,13.57
2022-10-11T14:53:46.156Z,12.68
2022-10-11T14:56:17.723Z,13.80
2022-10-11T14:58:47.374Z,13.94
2022-10-11T15:01:15.748Z,13.52
2022-10-11T15:03:42.774Z,14.00
2022-10-11T15:06:28.899Z,14.01
2022-10-11T15:08:55.703Z,13.63
2022-10-11T15:11:23.217Z,13.60
2022-10-11T15:13:50.319Z,13.32
2022-10-11T15:16:19.693Z,13.41
2022-10-11T15:18:50.907Z,12.97
2022-10-11T15:21:23.457Z,12.93
2022-10-11T15:23:52.539Z,13.04
2022-10-11T15:26:27.762Z,13.03
2022-10-11T15:28:56.849Z,13.04
2022-10-11T15:31:24.338Z,13.05
2022-10-11T15:33:51.555Z,13.27
2022-10-11T15:36:22.362Z,12.98
2022-10-11T15:38:49.909Z,12.97
2022-10-11T15:41:18.868Z,12.98
2022-10-11T15:43:47.440Z,12.78
2022-10-11T15:46:20.363Z,12.77
2022-10-11T15:48:48.044Z,12.73
2022-10-11T15:51:14.729Z,12.25
2022-10-11T15:53:41.388Z,12.70
2022-10-11T15:56:12.246Z,12.69
2022-10-11T15:58:40.310Z,12.61
2022-10-11T16:01:14.929Z,12.56
2022-10-11T16:03:42.340Z,12.57
2022-10-11T16:06:09.857Z,12.58
2022-10-11T16:08:36.968Z,12.48
2022-10-11T16:11:05.619Z,12.36
2022-10-11T16:13:32.918Z,12.50
2022-10-11T16:16:04.852Z,12.40
2022-10-11T16:18:35.334Z,12.12
2022-10-11T16:21:10.399Z,12.34
2022-10-11T16:23:38.426Z,12.20
2022-10-11T16:26:08.184Z,12.31
2022-10-11T16:28:35.660Z,11.72
2022-10-11T16:31:09.100Z,12.07
2022-10-11T16:33:45.389Z,11.80
2022-10-11T16:36:32.714Z,11.98
2022-10-11T16:39:01.219Z,12.11
2022-10-11T16:41:28.012Z,11.99
2022-10-11T16:43:55.313Z,12.00
2022-10-11T16:46:22.526Z,11.88
2022-10-11T16:48:49.402Z,11.81
2022-10-11T16:51:16.077Z,11.90
2022-10-11T16:53:42.778Z,11.47
2022-10-11T16:56:11.893Z,11.71
2022-10-11T16:58:38.676Z,11.40
2022-10-11T17:01:10.906Z,11.82
2022-10-11T17:03:38.428Z,11.71
2022-10-11T17:06:05.963Z,11.57
2022-10-11T17:08:32.784Z,11.18
2022-10-11T17:10:59.442Z,11.51
2022-10-11T17:13:26.510Z,11.34
2022-10-11T17:15:53.238Z,11.37
2022-10-11T17:18:19.976Z,11.33
2022-10-11T17:20:46.582Z,10.77
2022-10-11T17:23:13.229Z,10.89
2022-10-11T17:25:44.815Z,11.06
2022-10-11T17:28:11.944Z,11.12
2022-10-11T17:30:41.731Z,11.15
2022-10-11T17:33:08.667Z,10.94
2022-10-11T17:35:35.305Z,10.85
2022-10-11T17:38:05.894Z,10.77
2022-10-11T17:40:33.162Z,11.15
2022-10-11T17:42:59.845Z,10.89
2022-10-11T17:45:26.504Z,11.00
2022-10-11T17:47:53.118Z,11.17
2022-10-11T17:50:19.736Z,10.80
2022-10-11T17:52:46.442Z,10.83
2022-10-11T17:55:13.705Z,11.04
2022-10-11T17:57:40.408Z,10.80
2022-10-11T18:00:07.666Z,10.79
2022-10-11T18:02:34.349Z,10.88
2022-10-11T18:05:00.977Z,10.74
2022-10-11T18:07:27.657Z,10.89
2022-10-11T18:09:54.433Z,10.19
2022-10-11T18:12:21.231Z,11.23
2022-10-11T18:14:47.886Z,10.91
2022-10-11T18:17:14.640Z,10.84
2022-10-11T18:19:41.372Z,10.90
2022-10-11T18:22:08.281Z,10.94
2022-10-11T18:24:35.157Z,11.08
2022-10-11T18:27:02.268Z,10.83
2022-10-11T18:29:29.094Z,10.93
2022-10-11T18:31:55.746Z,10.87
2022-10-11T18:34:22.405Z,10.18
2022-10-11T18:36:48.999Z,10.67
2022-10-11T18:39:15.719Z,10.91
2022-10-11T18:41:44.599Z,10.81
2022-10-11T18:44:16.492Z,10.74
2022-10-11T18:46:44.326Z,10.66
2022-10-11T18:49:11.565Z,10.55
2022-10-11T18:51:40.387Z,10.27
2022-10-11T18:54:08.431Z,10.58
2022-10-11T18:56:36.845Z,10.63
2022-10-11T18:59:04.657Z,10.52
2022-10-11T19:01:40.671Z,10.59
2022-10-11T19:04:09.372Z,10.43
2022-10-11T19:06:41.436Z,10.55
2022-10-11T19:09:11.430Z,10.17
2022-10-11T19:11:38.872Z,10.48
2022-10-11T19:14:14.843Z,10.42
2022-10-11T19:16:49.368Z,10.28
2022-10-11T19:19:17.590Z,10.27
2022-10-11T19:21:44.937Z,10.27
2022-10-11T19:24:11.790Z,10.15
2022-10-11T19:26:40.812Z,10.31
2022-10-11T19:29:16.575Z,10.19
2022-10-11T19:31:52.205Z,9.89
2022-10-11T19:34:19.845Z,9.91
2022-10-11T19:36:49.999Z,9.86
2022-10-11T19:39:18.430Z,9.69
2022-10-11T19:41:46.290Z,9.96
2022-10-11T19:44:14.440Z,10.06
2022-10-11T19:47:00.221Z,9.82
2022-10-11T19:49:28.263Z,10.10
2022-10-11T19:51:55.441Z,9.91
2022-10-11T19:54:22.628Z,9.95
2022-10-11T19:56:49.492Z,9.95
2022-10-11T19:59:17.022Z,9.92
2022-10-11T20:01:49.369Z,9.84
2022-10-11T20:04:47.000Z,10.00
2022-10-11T20:07:05.462Z,9.82
2022-10-11T20:09:32.164Z,9.57
2022-10-11T20:11:59.086Z,9.74
2022-10-11T20:14:25.777Z,9.89
2022-10-11T20:16:52.904Z,10.13
2022-10-11T20:19:19.712Z,10.17
2022-10-11T20:21:47.329Z,9.78
2022-10-11T20:24:14.008Z,9.78
2022-10-11T20:26:40.636Z,9.91
2022-10-11T20:29:07.386Z,9.94
2022-10-11T20:31:38.270Z,9.65
2022-10-11T20:34:07.226Z,9.56
2022-10-11T20:36:35.817Z,9.70
2022-10-11T20:39:03.746Z,9.22
2022-10-11T20:41:33.176Z,9.60
2022-10-11T20:44:01.383Z,9.67
2022-10-11T20:46:33.482Z,9.67
2022-10-11T20:49:02.593Z,9.57
2022-10-11T20:51:34.626Z,9.52
2022-10-11T20:54:02.216Z,9.47
2022-10-11T20:56:29.942Z,9.55
2022-10-11T20:58:58.011Z,9.58
2022-10-11T21:01:37.282Z,9.53
2022-10-11T21:04:05.408Z,9.37
2022-10-11T21:06:33.167Z,9.14
2022-10-11T21:09:00.346Z,9.38
2022-10-11T21:11:28.761Z,9.28
2022-10-11T21:13:56.388Z,9.04
2022-10-11T21:16:23.300Z,8.98
2022-10-11T21:18:51.955Z,9.00
2022-10-11T21:21:19.551Z,8.28
2022-10-11T21:23:46.506Z,8.47
2022-10-11T21:26:18.397Z,7.59
2022-10-11T21:28:46.396Z,8.25
2022-10-11T21:31:16.207Z,8.53
2022-10-11T21:33:44.267Z,8.46
2022-10-11T21:36:13.783Z,8.45
2022-10-11T21:38:40.757Z,7.94
2022-10-11T21:41:10.032Z,8.16
2022-10-11T21:43:38.321Z,8.21
2022-10-11T21:46:41.656Z,8.11
2022-10-11T21:49:13.171Z,8.25
2022-10-11T21:51:39.793Z,8.16
2022-10-11T21:54:06.644Z,8.43
2022-10-11T21:56:33.245Z,8.33
2022-10-11T21:58:59.939Z,8.17
2022-10-11T22:01:27.026Z,7.96
2022-10-11T22:03:54.300Z,8.25
2022-10-11T22:06:21.651Z,7.59
2022-10-11T22:08:49.973Z,7.87
2022-10-11T22:11:16.658Z,7.92
2022-10-11T22:13:43.348Z,7.62
2022-10-11T22:16:12.517Z,7.92
2022-10-11T22:18:39.771Z,7.45
2022-10-11T22:21:11.860Z,7.68
2022-10-11T22:23:38.897Z,7.52
2022-10-11T22:26:07.607Z,7.74
2022-10-11T22:28:34.810Z,7.34
2022-10-11T22:31:02.233Z,7.84
2022-10-11T22:33:28.887Z,7.36
2022-10-11T22:35:57.015Z,7.45
2022-10-11T22:38:24.618Z,7.62
2022-10-11T22:40:51.718Z,7.41
2022-10-11T22:43:18.960Z,7.35
2022-10-11T22:45:46.001Z,6.68
2022-10-11T22:48:13.168Z,7.06
2022-10-11T22:50:39.856Z,6.87
2022-10-11T22:53:07.680Z,6.68
2022-10-11T22:55:34.975Z,6.73
2022-10-11T22:58:01.676Z,6.66
2022-10-11T23:00:28.372Z,6.51
2022-10-11T23:02:55.727Z,6.51
2022-10-11T23:05:22.517Z,6.77
2022-10-11T23:07:49.312Z,7.03
2022-10-11T23:10:16.603Z,6.98
2022-10-11T23:12:43.765Z,7.14
2022-10-11T23:15:11.178Z,6.80
2022-10-11T23:17:38.440Z,6.58
2022-10-11T23:20:06.657Z,6.23
2022-10-11T23:22:33.249Z,6.29
2022-10-11T23:24:59.874Z,6.37
2022-10-11T23:27:26.428Z,6.71
2022-10-11T23:29:53.026Z,6.50
2022-10-11T23:32:19.587Z,6.90
2022-10-11T23:34:46.161Z,6.74
2022-10-11T23:37:12.873Z,7.02
2022-10-11T23:39:39.832Z,6.92
2022-10-11T23:42:06.394Z,6.97
2022-10-11T23:44:33.147Z,6.89
2022-10-11T23:46:59.715Z,6.91
2022-10-11T23:49:26.287Z,6.49
2022-10-11T23:51:52.897Z,6.53
2022-10-11T23:54:19.456Z,6.36
2022-10-11T23:56:46.072Z,6.60
2022-10-11T23:59:12.648Z,6.58
